sensor_id;sensor_type;location;lat;lon;timestamp;temperature;humidity
3504;DHT22;1766;53.490;10.174;2023-11-19T00:01:53;11.70;55.80
3504;DHT22;1766;53.490;10.174;2023-11-19T00:03:55;11.70;55.80
3504;DHT22;1766;53.490;10.174;2023-11-19T00:05:57;11.70;55.80
3504;DHT22;1766;53.490;10.174;2023-11-19T00:07:59;11.70;55.90
3504;DHT22;1766;53.490;10.174;2023-11-19T00:10:00;11.70;55.90
3504;DHT22;1766;53.490;10.174;2023-11-19T00:12:10;11.70;56.40
3504;DHT22;1766;53.490;10.174;2023-11-19T00:14:13;11.70;55.90
3504;DHT22;1766;53.490;10.174;2023-11-19T00:16:16;11.70;56.00
3504;DHT22;1766;53.490;10.174;2023-11-19T00:18:18;11.80;56.00
3504;DHT22;1766;53.490;10.174;2023-11-19T00:20:21;11.70;55.90
3504;DHT22;1766;53.490;10.174;2023-11-19T00:22:22;11.70;56.00
3504;DHT22;1766;53.490;10.174;2023-11-19T00:24:26;11.80;56.20
3504;DHT22;1766;53.490;10.174;2023-11-19T00:26:28;11.70;56.10
3504;DHT22;1766;53.490;10.174;2023-11-19T00:28:30;11.80;56.10
3504;DHT22;1766;53.490;10.174;2023-11-19T00:30:32;11.70;56.00
3504;DHT22;1766;53.490;10.174;2023-11-19T00:32:36;11.70;56.10
3504;DHT22;1766;53.490;10.174;2023-11-19T00:34:38;11.70;56.20
3504;DHT22;1766;53.490;10.174;2023-11-19T00:36:39;11.70;56.20
3504;DHT22;1766;53.490;10.174;2023-11-19T00:38:41;11.80;56.30
3504;DHT22;1766;53.490;10.174;2023-11-19T00:40:43;11.70;56.20
3504;DHT22;1766;53.490;10.174;2023-11-19T00:42:44;11.80;56.30
3504;DHT22;1766;53.490;10.174;2023-11-19T00:44:46;11.80;56.30
3504;DHT22;1766;53.490;10.174;2023-11-19T00:46:48;11.80;56.30
3504;DHT22;1766;53.490;10.174;2023-11-19T00:48:51;11.80;56.40
3504;DHT22;1766;53.490;10.174;2023-11-19T00:50:53;11.80;56.40
3504;DHT22;1766;53.490;10.174;2023-11-19T00:52:55;11.80;56.50
3504;DHT22;1766;53.490;10.174;2023-11-19T00:54:57;11.80;56.40
3504;DHT22;1766;53.490;10.174;2023-11-19T00:56:59;11.80;56.40
3504;DHT22;1766;53.490;10.174;2023-11-19T00:59:02;11.80;56.40
3504;DHT22;1766;53.490;10.174;2023-11-19T01:01:03;11.80;56.40
3504;DHT22;1766;53.490;10.174;2023-11-19T01:03:05;11.80;56.50
3504;DHT22;1766;53.490;10.174;2023-11-19T01:05:09;11.80;56.60
3504;DHT22;1766;53.490;10.174;2023-11-19T01:07:10;11.80;56.50
3504;DHT22;1766;53.490;10.174;2023-11-19T01:09:13;11.80;56.60
3504;DHT22;1766;53.490;10.174;2023-11-19T01:11:20;11.80;56.60
3504;DHT22;1766;53.490;10.174;2023-11-19T01:13:22;11.80;56.70
3504;DHT22;1766;53.490;10.174;2023-11-19T01:15:25;11.80;56.70
3504;DHT22;1766;53.490;10.174;2023-11-19T01:17:27;11.80;56.70
3504;DHT22;1766;53.490;10.174;2023-11-19T01:19:28;11.80;56.80
3504;DHT22;1766;53.490;10.174;2023-11-19T01:21:32;11.80;56.80
3504;DHT22;1766;53.490;10.174;2023-11-19T01:23:33;11.70;56.80
3504;DHT22;1766;53.490;10.174;2023-11-19T01:25:34;11.80;56.90
3504;DHT22;1766;53.490;10.174;2023-11-19T01:27:38;11.80;56.90
3504;DHT22;1766;53.490;10.174;2023-11-19T01:29:40;11.80;56.90
3504;DHT22;1766;53.490;10.174;2023-11-19T01:31:45;11.80;56.90
3504;DHT22;1766;53.490;10.174;2023-11-19T01:33:48;11.80;56.90
3504;DHT22;1766;53.490;10.174;2023-11-19T01:35:50;11.80;56.90
3504;DHT22;1766;53.490;10.174;2023-11-19T01:37:53;11.80;56.80
3504;DHT22;1766;53.490;10.174;2023-11-19T01:39:55;11.80;56.90
3504;DHT22;1766;53.490;10.174;2023-11-19T01:41:58;11.90;57.00
3504;DHT22;1766;53.490;10.174;2023-11-19T01:43:59;11.90;57.10
3504;DHT22;1766;53.490;10.174;2023-11-19T01:46:01;11.90;57.10
3504;DHT22;1766;53.490;10.174;2023-11-19T01:48:04;11.90;57.10
3504;DHT22;1766;53.490;10.174;2023-11-19T01:50:07;11.80;57.00
3504;DHT22;1766;53.490;10.174;2023-11-19T01:52:10;11.90;57.20
3504;DHT22;1766;53.490;10.174;2023-11-19T01:54:13;11.80;57.10
3504;DHT22;1766;53.490;10.174;2023-11-19T01:56:16;11.80;57.10
3504;DHT22;1766;53.490;10.174;2023-11-19T01:58:18;11.80;57.10
3504;DHT22;1766;53.490;10.174;2023-11-19T02:00:20;11.80;57.20
3504;DHT22;1766;53.490;10.174;2023-11-19T02:02:22;11.80;57.20
3504;DHT22;1766;53.490;10.174;2023-11-19T02:04:24;11.80;57.10
3504;DHT22;1766;53.490;10.174;2023-11-19T02:06:27;11.90;57.30
3504;DHT22;1766;53.490;10.174;2023-11-19T02:08:30;11.90;57.30
3504;DHT22;1766;53.490;10.174;2023-11-19T02:10:34;11.90;57.30
3504;DHT22;1766;53.490;10.174;2023-11-19T02:12:35;11.90;57.90
3504;DHT22;1766;53.490;10.174;2023-11-19T02:14:37;11.90;57.20
3504;DHT22;1766;53.490;10.174;2023-11-19T02:16:38;11.90;57.30
3504;DHT22;1766;53.490;10.174;2023-11-19T02:18:40;11.80;57.20
3504;DHT22;1766;53.490;10.174;2023-11-19T02:20:43;11.90;57.30
3504;DHT22;1766;53.490;10.174;2023-11-19T02:22:44;11.80;57.20
3504;DHT22;1766;53.490;10.174;2023-11-19T02:24:51;11.80;57.40
3504;DHT22;1766;53.490;10.174;2023-11-19T02:26:59;11.90;57.60
3504;DHT22;1766;53.490;10.174;2023-11-19T02:29:07;11.90;57.50
3504;DHT22;1766;53.490;10.174;2023-11-19T02:31:09;11.90;57.50
3504;DHT22;1766;53.490;10.174;2023-11-19T02:33:11;11.80;57.40
3504;DHT22;1766;53.490;10.174;2023-11-19T02:35:13;11.90;57.50
3504;DHT22;1766;53.490;10.174;2023-11-19T02:37:14;11.90;57.60
3504;DHT22;1766;53.490;10.174;2023-11-19T02:39:16;11.90;57.60
3504;DHT22;1766;53.490;10.174;2023-11-19T02:41:22;11.90;57.60
3504;DHT22;1766;53.490;10.174;2023-11-19T02:43:24;11.80;57.50
3504;DHT22;1766;53.490;10.174;2023-11-19T02:45:27;11.90;57.60
3504;DHT22;1766;53.490;10.174;2023-11-19T02:47:30;11.90;57.60
3504;DHT22;1766;53.490;10.174;2023-11-19T02:49:32;11.90;57.60
3504;DHT22;1766;53.490;10.174;2023-11-19T02:51:34;11.90;57.60
3504;DHT22;1766;53.490;10.174;2023-11-19T02:53:36;11.90;57.70
3504;DHT22;1766;53.490;10.174;2023-11-19T02:55:40;11.90;57.70
3504;DHT22;1766;53.490;10.174;2023-11-19T02:57:48;11.90;57.80
3504;DHT22;1766;53.490;10.174;2023-11-19T02:59:50;11.90;57.80
3504;DHT22;1766;53.490;10.174;2023-11-19T03:01:54;11.90;57.80
3504;DHT22;1766;53.490;10.174;2023-11-19T03:06:56;12.00;57.90
3504;DHT22;1766;53.490;10.174;2023-11-19T03:08:58;12.00;57.90
3504;DHT22;1766;53.490;10.174;2023-11-19T03:11:06;12.00;57.80
3504;DHT22;1766;53.490;10.174;2023-11-19T03:13:11;12.00;57.90
3504;DHT22;1766;53.490;10.174;2023-11-19T03:15:15;12.00;57.90
3504;DHT22;1766;53.490;10.174;2023-11-19T03:17:18;12.00;57.90
3504;DHT22;1766;53.490;10.174;2023-11-19T03:19:20;12.00;58.00
3504;DHT22;1766;53.490;10.174;2023-11-19T03:21:27;12.00;58.00
3504;DHT22;1766;53.490;10.174;2023-11-19T03:23:29;12.00;58.10
3504;DHT22;1766;53.490;10.174;2023-11-19T03:25:31;12.00;58.60
3504;DHT22;1766;53.490;10.174;2023-11-19T03:27:34;12.10;58.10
3504;DHT22;1766;53.490;10.174;2023-11-19T03:29:37;12.10;58.20
3504;DHT22;1766;53.490;10.174;2023-11-19T03:31:42;12.10;58.10
3504;DHT22;1766;53.490;10.174;2023-11-19T03:33:45;12.10;58.20
3504;DHT22;1766;53.490;10.174;2023-11-19T03:35:47;12.20;58.30
3504;DHT22;1766;53.490;10.174;2023-11-19T03:37:50;12.20;58.30
3504;DHT22;1766;53.490;10.174;2023-11-19T03:39:51;12.20;58.40
3504;DHT22;1766;53.490;10.174;2023-11-19T03:41:53;12.20;58.30
3504;DHT22;1766;53.490;10.174;2023-11-19T03:43:56;12.30;58.30
3504;DHT22;1766;53.490;10.174;2023-11-19T03:45:57;12.30;58.40
3504;DHT22;1766;53.490;10.174;2023-11-19T03:47:58;12.30;58.30
3504;DHT22;1766;53.490;10.174;2023-11-19T03:50:02;12.30;58.40
3504;DHT22;1766;53.490;10.174;2023-11-19T03:52:05;12.30;58.50
3504;DHT22;1766;53.490;10.174;2023-11-19T03:54:07;12.30;58.40
3504;DHT22;1766;53.490;10.174;2023-11-19T03:56:09;12.30;58.40
3504;DHT22;1766;53.490;10.174;2023-11-19T03:58:11;12.30;58.50
3504;DHT22;1766;53.490;10.174;2023-11-19T04:00:14;12.40;58.50
3504;DHT22;1766;53.490;10.174;2023-11-19T04:02:16;12.40;58.60
3504;DHT22;1766;53.490;10.174;2023-11-19T04:04:18;12.40;58.60
3504;DHT22;1766;53.490;10.174;2023-11-19T04:06:21;12.40;58.60
3504;DHT22;1766;53.490;10.174;2023-11-19T04:08:23;12.40;58.60
3504;DHT22;1766;53.490;10.174;2023-11-19T04:10:25;12.40;58.60
3504;DHT22;1766;53.490;10.174;2023-11-19T04:12:28;12.40;58.60
3504;DHT22;1766;53.490;10.174;2023-11-19T04:14:29;12.40;58.70
3504;DHT22;1766;53.490;10.174;2023-11-19T04:16:31;12.50;58.80
3504;DHT22;1766;53.490;10.174;2023-11-19T04:18:33;12.50;58.80
3504;DHT22;1766;53.490;10.174;2023-11-19T04:20:35;12.50;58.70
3504;DHT22;1766;53.490;10.174;2023-11-19T04:22:38;12.50;58.70
3504;DHT22;1766;53.490;10.174;2023-11-19T04:24:39;12.50;58.90
3504;DHT22;1766;53.490;10.174;2023-11-19T04:26:45;12.50;58.90
3504;DHT22;1766;53.490;10.174;2023-11-19T04:28:47;12.50;59.00
3504;DHT22;1766;53.490;10.174;2023-11-19T04:30:49;12.50;58.90
3504;DHT22;1766;53.490;10.174;2023-11-19T04:32:50;12.50;58.90
3504;DHT22;1766;53.490;10.174;2023-11-19T04:34:52;12.50;59.00
3504;DHT22;1766;53.490;10.174;2023-11-19T04:36:54;12.50;59.00
3504;DHT22;1766;53.490;10.174;2023-11-19T04:38:57;12.50;59.00
3504;DHT22;1766;53.490;10.174;2023-11-19T04:41:00;12.60;59.00
3504;DHT22;1766;53.490;10.174;2023-11-19T04:43:02;12.60;59.10
3504;DHT22;1766;53.490;10.174;2023-11-19T04:45:03;12.60;59.10
3504;DHT22;1766;53.490;10.174;2023-11-19T04:47:06;12.60;59.20
3504;DHT22;1766;53.490;10.174;2023-11-19T04:49:08;12.70;59.20
3504;DHT22;1766;53.490;10.174;2023-11-19T04:51:11;12.70;59.20
3504;DHT22;1766;53.490;10.174;2023-11-19T04:53:12;12.70;59.20
3504;DHT22;1766;53.490;10.174;2023-11-19T04:55:17;12.70;59.30
3504;DHT22;1766;53.490;10.174;2023-11-19T04:57:19;12.70;59.30
3504;DHT22;1766;53.490;10.174;2023-11-19T04:59:20;12.70;59.30
3504;DHT22;1766;53.490;10.174;2023-11-19T05:01:22;12.70;59.80
3504;DHT22;1766;53.490;10.174;2023-11-19T05:03:24;12.80;59.40
3504;DHT22;1766;53.490;10.174;2023-11-19T05:05:25;12.80;59.30
3504;DHT22;1766;53.490;10.174;2023-11-19T05:07:27;12.80;59.40
3504;DHT22;1766;53.490;10.174;2023-11-19T05:09:28;12.80;59.40
3504;DHT22;1766;53.490;10.174;2023-11-19T05:11:32;12.80;59.50
3504;DHT22;1766;53.490;10.174;2023-11-19T05:13:34;12.90;59.70
3504;DHT22;1766;53.490;10.174;2023-11-19T05:15:36;12.90;59.70
3504;DHT22;1766;53.490;10.174;2023-11-19T05:17:38;12.90;59.70
3504;DHT22;1766;53.490;10.174;2023-11-19T05:19:40;13.00;59.80
3504;DHT22;1766;53.490;10.174;2023-11-19T05:21:42;13.00;59.80
3504;DHT22;1766;53.490;10.174;2023-11-19T05:23:45;13.10;60.00
3504;DHT22;1766;53.490;10.174;2023-11-19T05:25:47;13.10;60.00
3504;DHT22;1766;53.490;10.174;2023-11-19T05:27:50;13.10;60.00
3504;DHT22;1766;53.490;10.174;2023-11-19T05:29:52;13.10;60.70
3504;DHT22;1766;53.490;10.174;2023-11-19T05:31:54;13.20;60.20
3504;DHT22;1766;53.490;10.174;2023-11-19T05:33:55;13.20;60.20
3504;DHT22;1766;53.490;10.174;2023-11-19T05:35:57;13.30;60.30
3504;DHT22;1766;53.490;10.174;2023-11-19T05:37:59;13.30;60.30
3504;DHT22;1766;53.490;10.174;2023-11-19T05:40:03;13.30;60.30
3504;DHT22;1766;53.490;10.174;2023-11-19T05:42:12;13.40;60.60
3504;DHT22;1766;53.490;10.174;2023-11-19T05:44:16;13.40;60.50
3504;DHT22;1766;53.490;10.174;2023-11-19T05:46:18;13.50;60.80
3504;DHT22;1766;53.490;10.174;2023-11-19T05:48:20;13.50;60.70
3504;DHT22;1766;53.490;10.174;2023-11-19T05:50:21;13.50;60.80
3504;DHT22;1766;53.490;10.174;2023-11-19T05:52:24;13.60;61.00
3504;DHT22;1766;53.490;10.174;2023-11-19T05:54:25;13.60;61.10
3504;DHT22;1766;53.490;10.174;2023-11-19T05:56:26;13.70;61.10
3504;DHT22;1766;53.490;10.174;2023-11-19T05:58:33;13.80;61.20
3504;DHT22;1766;53.490;10.174;2023-11-19T06:00:36;13.80;61.40
3504;DHT22;1766;53.490;10.174;2023-11-19T06:02:38;13.80;61.50
3504;DHT22;1766;53.490;10.174;2023-11-19T06:04:40;13.90;61.70
3504;DHT22;1766;53.490;10.174;2023-11-19T06:06:44;14.00;61.80
3504;DHT22;1766;53.490;10.174;2023-11-19T06:08:46;14.00;61.80
3504;DHT22;1766;53.490;10.174;2023-11-19T06:10:47;14.10;62.00
3504;DHT22;1766;53.490;10.174;2023-11-19T06:12:51;14.10;62.00
3504;DHT22;1766;53.490;10.174;2023-11-19T06:14:56;14.20;62.10
3504;DHT22;1766;53.490;10.174;2023-11-19T06:16:59;14.30;62.30
3504;DHT22;1766;53.490;10.174;2023-11-19T06:19:01;14.30;62.30
3504;DHT22;1766;53.490;10.174;2023-11-19T06:21:03;14.40;62.50
3504;DHT22;1766;53.490;10.174;2023-11-19T06:23:05;14.40;62.60
3504;DHT22;1766;53.490;10.174;2023-11-19T06:25:08;14.50;62.60
3504;DHT22;1766;53.490;10.174;2023-11-19T06:27:09;14.50;62.70
3504;DHT22;1766;53.490;10.174;2023-11-19T06:29:11;14.60;62.70
3504;DHT22;1766;53.490;10.174;2023-11-19T06:31:12;14.60;62.70
3504;DHT22;1766;53.490;10.174;2023-11-19T06:33:17;14.70;63.00
3504;DHT22;1766;53.490;10.174;2023-11-19T06:35:19;14.70;63.10
3504;DHT22;1766;53.490;10.174;2023-11-19T06:37:22;14.80;63.40
3504;DHT22;1766;53.490;10.174;2023-11-19T06:39:24;14.90;63.70
3504;DHT22;1766;53.490;10.174;2023-11-19T06:41:25;14.90;63.70
3504;DHT22;1766;53.490;10.174;2023-11-19T06:43:27;15.00;63.80
3504;DHT22;1766;53.490;10.174;2023-11-19T06:45:29;15.10;63.80
3504;DHT22;1766;53.490;10.174;2023-11-19T06:47:31;15.10;63.90
3504;DHT22;1766;53.490;10.174;2023-11-19T06:49:34;15.20;64.20
3504;DHT22;1766;53.490;10.174;2023-11-19T06:51:40;15.30;64.40
3504;DHT22;1766;53.490;10.174;2023-11-19T06:53:42;15.30;64.60
3504;DHT22;1766;53.490;10.174;2023-11-19T06:55:46;15.40;64.70
3504;DHT22;1766;53.490;10.174;2023-11-19T06:57:48;15.50;64.80
3504;DHT22;1766;53.490;10.174;2023-11-19T06:59:50;15.50;64.90
3504;DHT22;1766;53.490;10.174;2023-11-19T07:01:50;15.60;65.10
3504;DHT22;1766;53.490;10.174;2023-11-19T07:03:52;15.70;66.00
3504;DHT22;1766;53.490;10.174;2023-11-19T07:05:56;15.80;65.50
3504;DHT22;1766;53.490;10.174;2023-11-19T07:07:57;15.90;65.80
3504;DHT22;1766;53.490;10.174;2023-11-19T07:09:59;16.00;66.20
3504;DHT22;1766;53.490;10.174;2023-11-19T07:12:03;16.10;66.30
3504;DHT22;1766;53.490;10.174;2023-11-19T07:14:05;16.20;66.60
3504;DHT22;1766;53.490;10.174;2023-11-19T07:16:08;16.30;66.70
3504;DHT22;1766;53.490;10.174;2023-11-19T07:18:11;16.40;66.80
3504;DHT22;1766;53.490;10.174;2023-11-19T07:20:13;16.50;67.00
3504;DHT22;1766;53.490;10.174;2023-11-19T07:22:17;16.60;67.20
3504;DHT22;1766;53.490;10.174;2023-11-19T07:24:19;16.70;67.30
3504;DHT22;1766;53.490;10.174;2023-11-19T07:26:21;16.80;67.50
3504;DHT22;1766;53.490;10.174;2023-11-19T07:28:23;16.80;67.50
3504;DHT22;1766;53.490;10.174;2023-11-19T07:30:25;16.90;67.40
3504;DHT22;1766;53.490;10.174;2023-11-19T07:32:27;16.90;67.50
3504;DHT22;1766;53.490;10.174;2023-11-19T07:34:29;17.00;67.70
3504;DHT22;1766;53.490;10.174;2023-11-19T07:36:31;17.00;67.60
3504;DHT22;1766;53.490;10.174;2023-11-19T07:38:34;17.10;67.70
3504;DHT22;1766;53.490;10.174;2023-11-19T07:40:35;17.10;67.70
3504;DHT22;1766;53.490;10.174;2023-11-19T07:42:37;17.10;67.80
3504;DHT22;1766;53.490;10.174;2023-11-19T07:44:39;17.20;68.00
3504;DHT22;1766;53.490;10.174;2023-11-19T07:46:40;17.20;68.00
3504;DHT22;1766;53.490;10.174;2023-11-19T07:48:43;17.20;68.00
3504;DHT22;1766;53.490;10.174;2023-11-19T07:50:44;17.20;68.00
3504;DHT22;1766;53.490;10.174;2023-11-19T07:52:46;17.20;68.00
3504;DHT22;1766;53.490;10.174;2023-11-19T07:54:49;17.20;68.10
3504;DHT22;1766;53.490;10.174;2023-11-19T07:56:51;17.20;68.10
3504;DHT22;1766;53.490;10.174;2023-11-19T07:58:53;17.20;68.10
3504;DHT22;1766;53.490;10.174;2023-11-19T08:00:55;17.20;68.10
3504;DHT22;1766;53.490;10.174;2023-11-19T08:02:56;17.30;68.30
3504;DHT22;1766;53.490;10.174;2023-11-19T08:04:58;17.30;68.50
3504;DHT22;1766;53.490;10.174;2023-11-19T08:07:00;17.30;68.50
3504;DHT22;1766;53.490;10.174;2023-11-19T08:09:02;17.40;68.70
3504;DHT22;1766;53.490;10.174;2023-11-19T08:11:05;17.30;68.70
3504;DHT22;1766;53.490;10.174;2023-11-19T08:13:07;17.40;68.80
3504;DHT22;1766;53.490;10.174;2023-11-19T08:15:09;17.40;68.70
3504;DHT22;1766;53.490;10.174;2023-11-19T08:17:11;17.40;68.80
3504;DHT22;1766;53.490;10.174;2023-11-19T08:19:13;17.40;68.70
3504;DHT22;1766;53.490;10.174;2023-11-19T08:21:15;17.40;68.80
3504;DHT22;1766;53.490;10.174;2023-11-19T08:23:17;17.40;68.70
3504;DHT22;1766;53.490;10.174;2023-11-19T08:25:18;17.40;68.70
3504;DHT22;1766;53.490;10.174;2023-11-19T08:27:22;17.40;68.80
3504;DHT22;1766;53.490;10.174;2023-11-19T08:29:27;17.50;69.00
3504;DHT22;1766;53.490;10.174;2023-11-19T08:31:29;17.50;69.00
3504;DHT22;1766;53.490;10.174;2023-11-19T08:33:31;17.50;68.90
3504;DHT22;1766;53.490;10.174;2023-11-19T08:35:33;17.50;68.90
3504;DHT22;1766;53.490;10.174;2023-11-19T08:37:35;17.50;68.90
3504;DHT22;1766;53.490;10.174;2023-11-19T08:39:38;17.50;68.90
3504;DHT22;1766;53.490;10.174;2023-11-19T08:41:40;17.50;68.90
3504;DHT22;1766;53.490;10.174;2023-11-19T08:43:43;17.60;69.00
3504;DHT22;1766;53.490;10.174;2023-11-19T08:45:45;17.50;68.90
3504;DHT22;1766;53.490;10.174;2023-11-19T08:47:47;17.60;69.00
3504;DHT22;1766;53.490;10.174;2023-11-19T08:49:50;17.60;68.90
3504;DHT22;1766;53.490;10.174;2023-11-19T08:51:52;17.60;69.10
3504;DHT22;1766;53.490;10.174;2023-11-19T08:53:54;17.60;68.90
3504;DHT22;1766;53.490;10.174;2023-11-19T08:55:56;17.60;68.80
3504;DHT22;1766;53.490;10.174;2023-11-19T08:57:58;17.60;68.90
3504;DHT22;1766;53.490;10.174;2023-11-19T09:00:01;17.60;68.80
3504;DHT22;1766;53.490;10.174;2023-11-19T09:02:07;17.60;68.80
3504;DHT22;1766;53.490;10.174;2023-11-19T09:04:09;17.50;68.60
3504;DHT22;1766;53.490;10.174;2023-11-19T09:06:11;17.60;68.80
3504;DHT22;1766;53.490;10.174;2023-11-19T09:08:13;17.60;68.60
3504;DHT22;1766;53.490;10.174;2023-11-19T09:10:15;17.60;68.70
3504;DHT22;1766;53.490;10.174;2023-11-19T09:12:17;17.60;68.60
3504;DHT22;1766;53.490;10.174;2023-11-19T09:14:19;17.60;68.70
3504;DHT22;1766;53.490;10.174;2023-11-19T09:16:26;17.60;68.70
3504;DHT22;1766;53.490;10.174;2023-11-19T09:18:26;17.70;68.80
3504;DHT22;1766;53.490;10.174;2023-11-19T09:20:28;17.70;68.70
3504;DHT22;1766;53.490;10.174;2023-11-19T09:22:37;17.70;68.70
3504;DHT22;1766;53.490;10.174;2023-11-19T09:24:39;17.70;68.70
3504;DHT22;1766;53.490;10.174;2023-11-19T09:26:40;17.70;68.70
3504;DHT22;1766;53.490;10.174;2023-11-19T09:28:42;17.70;68.70
3504;DHT22;1766;53.490;10.174;2023-11-19T09:30:44;17.80;68.70
3504;DHT22;1766;53.490;10.174;2023-11-19T09:32:47;17.80;68.50
3504;DHT22;1766;53.490;10.174;2023-11-19T09:34:49;17.80;68.60
3504;DHT22;1766;53.490;10.174;2023-11-19T09:36:52;17.90;68.50
3504;DHT22;1766;53.490;10.174;2023-11-19T09:38:54;17.90;68.40
3504;DHT22;1766;53.490;10.174;2023-11-19T09:40:56;17.90;68.20
3504;DHT22;1766;53.490;10.174;2023-11-19T09:43:00;17.90;68.20
3504;DHT22;1766;53.490;10.174;2023-11-19T09:45:03;17.90;68.10
3504;DHT22;1766;53.490;10.174;2023-11-19T09:47:10;17.90;68.10
3504;DHT22;1766;53.490;10.174;2023-11-19T09:49:14;17.90;68.10
3504;DHT22;1766;53.490;10.174;2023-11-19T09:51:19;18.00;68.10
3504;DHT22;1766;53.490;10.174;2023-11-19T09:53:21;18.00;68.70
3504;DHT22;1766;53.490;10.174;2023-11-19T09:55:23;18.00;67.70
3504;DHT22;1766;53.490;10.174;2023-11-19T09:57:26;18.00;67.70
3504;DHT22;1766;53.490;10.174;2023-11-19T09:59:29;18.00;67.60
3504;DHT22;1766;53.490;10.174;2023-11-19T10:01:31;18.10;67.60
3504;DHT22;1766;53.490;10.174;2023-11-19T10:03:34;18.10;67.30
3504;DHT22;1766;53.490;10.174;2023-11-19T10:05:36;18.10;67.10
3504;DHT22;1766;53.490;10.174;2023-11-19T10:07:39;18.10;66.80
3504;DHT22;1766;53.490;10.174;2023-11-19T10:09:41;18.10;66.90
3504;DHT22;1766;53.490;10.174;2023-11-19T10:11:44;18.10;66.70
3504;DHT22;1766;53.490;10.174;2023-11-19T10:13:46;18.10;66.60
3504;DHT22;1766;53.490;10.174;2023-11-19T10:15:49;18.10;66.50
3504;DHT22;1766;53.490;10.174;2023-11-19T10:17:51;18.10;66.30
3504;DHT22;1766;53.490;10.174;2023-11-19T10:19:52;18.10;66.10
3504;DHT22;1766;53.490;10.174;2023-11-19T10:21:56;18.10;65.90
3504;DHT22;1766;53.490;10.174;2023-11-19T10:23:58;18.10;65.70
3504;DHT22;1766;53.490;10.174;2023-11-19T10:26:03;18.10;65.70
3504;DHT22;1766;53.490;10.174;2023-11-19T10:28:06;18.10;65.70
3504;DHT22;1766;53.490;10.174;2023-11-19T10:30:09;18.10;65.60
3504;DHT22;1766;53.490;10.174;2023-11-19T10:32:13;18.10;65.60
3504;DHT22;1766;53.490;10.174;2023-11-19T10:34:24;18.10;65.60
3504;DHT22;1766;53.490;10.174;2023-11-19T10:36:38;18.10;65.50
3504;DHT22;1766;53.490;10.174;2023-11-19T10:38:52;18.20;65.20
3504;DHT22;1766;53.490;10.174;2023-11-19T10:40:55;18.10;64.90
3504;DHT22;1766;53.490;10.174;2023-11-19T10:43:02;18.10;64.80
3504;DHT22;1766;53.490;10.174;2023-11-19T10:45:05;18.10;64.70
3504;DHT22;1766;53.490;10.174;2023-11-19T10:47:23;18.10;64.60
3504;DHT22;1766;53.490;10.174;2023-11-19T10:49:26;18.10;64.50
3504;DHT22;1766;53.490;10.174;2023-11-19T10:51:28;18.10;64.40
3504;DHT22;1766;53.490;10.174;2023-11-19T10:53:31;18.10;64.40
3504;DHT22;1766;53.490;10.174;2023-11-19T10:55:37;18.00;64.80
3504;DHT22;1766;53.490;10.174;2023-11-19T10:57:43;18.10;64.20
3504;DHT22;1766;53.490;10.174;2023-11-19T10:59:48;18.00;64.10
3504;DHT22;1766;53.490;10.174;2023-11-19T11:01:53;18.00;64.10
3504;DHT22;1766;53.490;10.174;2023-11-19T11:03:59;18.00;64.00
3504;DHT22;1766;53.490;10.174;2023-11-19T11:06:03;18.00;64.00
3504;DHT22;1766;53.490;10.174;2023-11-19T11:08:06;17.90;64.00
3504;DHT22;1766;53.490;10.174;2023-11-19T11:10:11;17.90;64.10
3504;DHT22;1766;53.490;10.174;2023-11-19T11:12:15;17.90;64.10
3504;DHT22;1766;53.490;10.174;2023-11-19T11:14:20;18.00;64.20
3504;DHT22;1766;53.490;10.174;2023-11-19T11:16:24;18.00;64.20
3504;DHT22;1766;53.490;10.174;2023-11-19T11:18:27;18.00;64.10
3504;DHT22;1766;53.490;10.174;2023-11-19T11:20:30;18.00;63.90
3504;DHT22;1766;53.490;10.174;2023-11-19T11:22:42;18.00;64.10
3504;DHT22;1766;53.490;10.174;2023-11-19T11:25:11;18.00;64.00
3504;DHT22;1766;53.490;10.174;2023-11-19T11:27:35;18.00;63.90
3504;DHT22;1766;53.490;10.174;2023-11-19T11:29:51;18.00;63.90
3504;DHT22;1766;53.490;10.174;2023-11-19T11:32:12;18.00;63.90
3504;DHT22;1766;53.490;10.174;2023-11-19T11:34:41;18.00;63.70
3504;DHT22;1766;53.490;10.174;2023-11-19T11:36:57;17.90;63.60
3504;DHT22;1766;53.490;10.174;2023-11-19T11:39:04;17.90;63.50
3504;DHT22;1766;53.490;10.174;2023-11-19T11:41:16;17.90;63.60
3504;DHT22;1766;53.490;10.174;2023-11-19T11:45:56;17.80;63.40
3504;DHT22;1766;53.490;10.174;2023-11-19T11:48:12;17.80;63.50
3504;DHT22;1766;53.490;10.174;2023-11-19T11:50:18;17.80;63.70
3504;DHT22;1766;53.490;10.174;2023-11-19T11:52:21;17.80;63.70
3504;DHT22;1766;53.490;10.174;2023-11-19T11:54:26;17.80;63.80
3504;DHT22;1766;53.490;10.174;2023-11-19T11:56:33;17.80;63.80
3504;DHT22;1766;53.490;10.174;2023-11-19T11:58:36;17.90;63.80
3504;DHT22;1766;53.490;10.174;2023-11-19T12:00:41;17.90;63.90
3504;DHT22;1766;53.490;10.174;2023-11-19T12:02:44;17.90;63.80
3504;DHT22;1766;53.490;10.174;2023-11-19T12:04:48;17.90;64.00
3504;DHT22;1766;53.490;10.174;2023-11-19T12:07:03;17.90;64.10
3504;DHT22;1766;53.490;10.174;2023-11-19T12:09:06;17.90;64.10
3504;DHT22;1766;53.490;10.174;2023-11-19T12:11:09;18.00;64.10
3504;DHT22;1766;53.490;10.174;2023-11-19T12:13:10;18.00;64.20
3504;DHT22;1766;53.490;10.174;2023-11-19T12:15:12;18.00;64.20
3504;DHT22;1766;53.490;10.174;2023-11-19T12:17:40;18.10;64.20
3504;DHT22;1766;53.490;10.174;2023-11-19T12:19:46;18.10;64.50
3504;DHT22;1766;53.490;10.174;2023-11-19T12:21:48;18.20;64.50
3504;DHT22;1766;53.490;10.174;2023-11-19T12:23:49;18.30;64.30
3504;DHT22;1766;53.490;10.174;2023-11-19T12:25:51;18.30;64.20
3504;DHT22;1766;53.490;10.174;2023-11-19T12:27:53;18.30;63.90
3504;DHT22;1766;53.490;10.174;2023-11-19T12:29:55;18.30;63.80
3504;DHT22;1766;53.490;10.174;2023-11-19T12:31:57;18.30;63.70
3504;DHT22;1766;53.490;10.174;2023-11-19T12:34:11;18.30;63.50
3504;DHT22;1766;53.490;10.174;2023-11-19T12:36:13;18.30;63.40
3504;DHT22;1766;53.490;10.174;2023-11-19T12:38:19;18.40;63.40
3504;DHT22;1766;53.490;10.174;2023-11-19T12:40:23;18.40;63.40
3504;DHT22;1766;53.490;10.174;2023-11-19T12:42:35;18.40;63.30
3504;DHT22;1766;53.490;10.174;2023-11-19T12:44:37;18.30;63.00
3504;DHT22;1766;53.490;10.174;2023-11-19T12:46:39;18.30;62.90
3504;DHT22;1766;53.490;10.174;2023-11-19T12:48:41;18.30;62.70
3504;DHT22;1766;53.490;10.174;2023-11-19T12:50:55;18.30;62.80
3504;DHT22;1766;53.490;10.174;2023-11-19T12:52:58;18.30;62.70
3504;DHT22;1766;53.490;10.174;2023-11-19T12:55:00;18.30;62.60
3504;DHT22;1766;53.490;10.174;2023-11-19T12:57:02;18.30;62.50
3504;DHT22;1766;53.490;10.174;2023-11-19T12:59:12;18.20;62.50
3504;DHT22;1766;53.490;10.174;2023-11-19T13:01:17;18.20;62.50
3504;DHT22;1766;53.490;10.174;2023-11-19T13:03:29;18.20;62.70
3504;DHT22;1766;53.490;10.174;2023-11-19T13:05:33;18.20;62.80
3504;DHT22;1766;53.490;10.174;2023-11-19T13:07:36;18.20;62.70
3504;DHT22;1766;53.490;10.174;2023-11-19T13:09:38;18.20;62.60
3504;DHT22;1766;53.490;10.174;2023-11-19T13:11:40;18.20;62.70
3504;DHT22;1766;53.490;10.174;2023-11-19T13:13:56;18.20;62.70
3504;DHT22;1766;53.490;10.174;2023-11-19T13:16:03;18.20;62.70
3504;DHT22;1766;53.490;10.174;2023-11-19T13:18:06;18.20;62.70